Time;durP1;ratioP1;P1;durP2;ratioP2;P2;SDS_P1;SDS_P2;PMS_P1;PMS_P2;Temp;Humidity;BMP_temperature;BMP_pressure;BME280_temperature;BME280_humidity;BME280_pressure;Samples;Min_cycle;Max_cycle;Signal;HPM_P1;HPM_P2
2023/09/09 00:00:43;;;;;;;8.65;7.68;;;;;;;18.38;100.00;96273.56;4986275;28;20022;-75
2023/09/09 00:03:08;;;;;;;8.57;7.68;;;;;;;18.36;100.00;96264.94;4982712;28;20023;-74
2023/09/09 00:05:33;;;;;;;8.20;7.40;;;;;;;18.36;100.00;96280.09;4979649;28;20433;-75
2023/09/09 00:07:59;;;;;;;8.20;7.50;;;;;;;18.32;100.00;96269.78;4988976;28;20026;-75
2023/09/09 00:10:25;;;;;;;7.95;7.25;;;;;;;18.33;100.00;96273.25;4985499;28;20390;-75
2023/09/09 00:12:50;;;;;;;8.88;7.55;;;;;;;18.32;100.00;96276.94;4985508;28;20026;-75
2023/09/09 00:15:16;;;;;;;8.23;7.63;;;;;;;18.31;100.00;96267.28;4988352;28;20030;-74
2023/09/09 00:17:41;;;;;;;8.95;7.97;;;;;;;18.33;100.00;96266.09;4994099;28;20025;-75
2023/09/09 00:20:14;;;;;;;8.30;7.60;;;;;;;18.31;100.00;96268.13;4979453;28;20114;-75
2023/09/09 00:22:39;;;;;;;9.38;8.27;;;;;;;18.27;100.00;96265.97;4990219;28;20109;-75
2023/09/09 00:25:06;;;;;;;8.65;7.75;;;;;;;18.25;100.00;96260.84;4984483;28;20030;-75
2023/09/09 00:27:31;;;;;;;9.30;8.38;;;;;;;18.26;100.00;96256.31;4977349;28;20031;-75
2023/09/09 00:29:57;;;;;;;7.70;7.05;;;;;;;18.21;100.00;96256.84;4985879;28;20042;-75
2023/09/09 00:32:22;;;;;;;10.77;7.70;;;;;;;18.24;100.00;96256.53;4983799;28;20030;-74
2023/09/09 00:34:47;;;;;;;8.75;7.80;;;;;;;18.27;100.00;96255.31;4985714;28;20113;-75
2023/09/09 00:37:13;;;;;;;8.75;7.93;;;;;;;18.27;100.00;96250.81;4988862;28;20030;-74
2023/09/09 00:39:38;;;;;;;8.95;8.02;;;;;;;18.23;100.00;96251.34;4987501;28;20109;-74
2023/09/09 00:42:04;;;;;;;10.35;8.23;;;;;;;18.17;100.00;96253.72;4998850;28;20026;-75
2023/09/09 00:44:29;;;;;;;9.68;7.72;;;;;;;18.13;100.00;96251.56;4987810;28;20065;-74
2023/09/09 00:46:55;;;;;;;8.65;7.85;;;;;;;18.12;100.00;96256.06;4987372;28;20030;-76
2023/09/09 00:49:21;;;;;;;10.70;8.63;;;;;;;18.11;100.00;96241.09;4985475;28;20035;-75
2023/09/09 00:51:47;;;;;;;8.93;8.13;;;;;;;18.11;100.00;96242.94;4983874;28;20084;-74
2023/09/09 00:54:13;;;;;;;9.02;8.25;;;;;;;18.09;100.00;96242.28;4981687;28;20030;-75
2023/09/09 00:56:39;;;;;;;9.02;8.13;;;;;;;18.08;100.00;96246.75;4982777;28;20092;-75
2023/09/09 00:59:04;;;;;;;8.77;7.97;;;;;;;18.01;100.00;96246.63;4989536;28;20057;-74
2023/09/09 01:01:31;;;;;;;8.60;7.75;;;;;;;17.99;100.00;96242.47;4977486;28;20531;-75
2023/09/09 01:03:57;;;;;;;9.18;8.15;;;;;;;17.96;100.00;96242.81;4985478;28;20047;-75
2023/09/09 01:06:23;;;;;;;10.27;8.05;;;;;;;17.95;100.00;96236.66;4986701;28;20045;-74
2023/09/09 01:08:49;;;;;;;9.25;8.40;;;;;;;17.87;100.00;96234.03;4989588;28;20022;-75
2023/09/09 01:11:14;;;;;;;9.55;8.13;;;;;;;17.81;100.00;96242.75;4985391;28;20526;-74
2023/09/09 01:13:40;;;;;;;10.63;8.63;;;;;;;17.78;100.00;96235.06;4989610;28;20422;-74
2023/09/09 01:16:06;;;;;;;13.00;8.20;;;;;;;17.77;100.00;96234.25;4992319;28;20411;-75
2023/09/09 01:18:34;;;;;;;9.88;8.18;;;;;;;17.78;100.00;96232.41;4991726;28;20396;-75
2023/09/09 01:21:10;;;;;;;10.52;8.20;;;;;;;17.74;100.00;96235.44;4971401;28;20022;-75
2023/09/09 01:23:36;;;;;;;10.60;8.13;;;;;;;17.73;100.00;96232.94;4990721;28;20026;-74
2023/09/09 01:26:02;;;;;;;9.80;8.88;;;;;;;17.67;100.00;96225.63;4989787;28;20022;-75
2023/09/09 01:28:28;;;;;;;9.50;8.55;;;;;;;17.65;100.00;96231.16;5006639;28;20034;-75
2023/09/09 01:30:53;;;;;;;9.88;8.48;;;;;;;17.64;100.00;96232.16;4987449;28;20547;-76
2023/09/09 01:33:19;;;;;;;9.35;8.52;;;;;;;17.63;100.00;96232.31;4984416;28;20071;-75
2023/09/09 01:35:46;;;;;;;8.60;7.90;;;;;;;17.61;100.00;96230.66;4989826;28;20070;-75
2023/09/09 01:38:12;;;;;;;9.18;8.40;;;;;;;17.56;100.00;96226.84;4987200;28;20022;-75
2023/09/09 01:40:37;;;;;;;11.15;8.98;;;;;;;17.58;100.00;96230.19;4992483;28;20018;-75
2023/09/09 01:43:03;;;;;;;9.63;7.72;;;;;;;17.59;100.00;96234.50;5001581;28;20030;-75
2023/09/09 01:45:28;;;;;;;8.88;7.97;;;;;;;17.58;100.00;96227.53;4990333;28;20527;-76
2023/09/09 01:47:54;;;;;;;12.10;8.13;;;;;;;17.58;100.00;96224.88;4987389;28;20041;-76
2023/09/09 01:50:19;;;;;;;11.15;8.73;;;;;;;17.59;100.00;96224.69;4987249;28;20121;-75
2023/09/09 01:52:44;;;;;;;9.85;8.57;;;;;;;17.60;100.00;96228.19;4988986;28;20032;-76
2023/09/09 01:55:10;;;;;;;9.32;8.27;;;;;;;17.57;100.00;96229.34;4996660;28;20679;-76
2023/09/09 01:57:35;;;;;;;9.65;8.52;;;;;;;17.58;100.00;96227.53;5008017;28;20398;-76
2023/09/09 02:00:06;;;;;;;9.52;8.73;;;;;;;17.57;100.00;96228.50;4982388;28;20058;-75
2023/09/09 02:02:32;;;;;;;10.60;9.00;;;;;;;17.52;100.00;96228.19;4988146;28;20038;-75
2023/09/09 02:04:57;;;;;;;9.60;8.88;;;;;;;17.51;100.00;96231.88;4986494;28;20475;-75
2023/09/09 02:07:23;;;;;;;10.02;7.60;;;;;;;17.54;100.00;96228.84;4988669;28;20081;-74
2023/09/09 02:09:48;;;;;;;8.68;7.97;;;;;;;17.56;100.00;96229.50;4988249;28;20462;-75
2023/09/09 02:12:13;;;;;;;8.90;8.10;;;;;;;17.52;100.00;96231.72;4988369;28;20189;-75
2023/09/09 02:14:39;;;;;;;12.80;8.73;;;;;;;17.52;100.00;96228.19;4988017;28;20064;-75
2023/09/09 02:17:04;;;;;;;11.90;7.80;;;;;;;17.49;100.00;96225.88;4992998;28;20033;-75
2023/09/09 02:19:30;;;;;;;9.88;8.65;;;;;;;17.47;100.00;96218.91;4985472;28;20054;-75
2023/09/09 02:21:55;;;;;;;9.82;8.82;;;;;;;17.45;100.00;96226.25;4988541;28;20030;-75
2023/09/09 02:24:21;;;;;;;10.18;8.35;;;;;;;17.43;100.00;96216.75;4989405;28;20037;-75
2023/09/09 02:26:46;;;;;;;11.98;8.75;;;;;;;17.40;100.00;96217.94;4981920;28;20416;-75
2023/09/09 02:29:12;;;;;;;10.57;8.85;;;;;;;17.32;100.00;96216.13;4998878;28;20063;-75
2023/09/09 02:31:37;;;;;;;11.52;8.23;;;;;;;17.32;100.00;96220.63;4991662;28;20045;-75
2023/09/09 02:34:02;;;;;;;9.68;8.77;;;;;;;17.31;100.00;96210.97;4991349;28;20034;-75
2023/09/09 02:36:28;;;;;;;10.00;8.23;;;;;;;17.28;100.00;96214.81;4984818;28;20155;-75
2023/09/09 02:38:53;;;;;;;9.40;8.60;;;;;;;17.25;100.00;96214.34;4993268;28;20544;-75
2023/09/09 02:41:18;;;;;;;9.43;8.63;;;;;;;17.28;100.00;96214.81;4993422;28;20074;-75
2023/09/09 02:43:44;;;;;;;9.05;8.25;;;;;;;17.28;100.00;96206.00;4992087;28;20052;-75
2023/09/09 02:46:09;;;;;;;10.07;9.07;;;;;;;17.25;100.00;96209.00;4991599;28;20065;-75
2023/09/09 02:48:35;;;;;;;12.23;8.85;;;;;;;17.21;100.00;96208.50;4987263;28;20125;-75
2023/09/09 02:51:00;;;;;;;9.80;8.98;;;;;;;17.21;100.00;96197.88;4991734;28;20117;-74
2023/09/09 02:53:26;;;;;;;9.93;8.13;;;;;;;17.18;100.00;96204.38;4991757;28;20030;-75
2023/09/09 02:55:51;;;;;;;9.93;9.05;;;;;;;17.14;100.00;96204.88;4975372;28;20085;-75
2023/09/09 02:58:17;;;;;;;9.45;8.73;;;;;;;17.09;100.00;96200.06;4975463;28;20031;-75
2023/09/09 03:00:42;;;;;;;9.27;8.45;;;;;;;17.07;100.00;96202.06;4987973;28;20065;-74
2023/09/09 03:03:07;;;;;;;9.57;8.40;;;;;;;17.08;100.00;96208.22;4988072;28;20041;-75
2023/09/09 03:05:36;;;;;;;9.50;8.70;;;;;;;17.03;100.00;96206.06;4978760;28;20502;-75
2023/09/09 03:08:03;;;;;;;9.60;8.80;;;;;;;16.96;100.00;96211.22;4987997;28;20038;-74
2023/09/09 03:10:29;;;;;;;10.32;8.45;;;;;;;16.95;100.00;96206.06;4984559;28;20057;-73
2023/09/09 03:12:56;;;;;;;10.48;9.13;;;;;;;16.94;100.00;96204.41;4990860;28;20030;-74
2023/09/09 03:15:23;;;;;;;9.77;8.90;;;;;;;16.92;100.00;96211.72;4987727;28;20105;-76
2023/09/09 03:17:48;;;;;;;9.27;8.43;;;;;;;16.90;100.00;96211.88;4989894;28;20061;-74
2023/09/09 03:20:14;;;;;;;9.57;8.75;;;;;;;16.93;100.00;96208.88;4992302;28;20680;-74
2023/09/09 03:22:39;;;;;;;9.95;8.50;;;;;;;16.93;100.00;96206.22;4990729;28;20030;-76
2023/09/09 03:25:05;;;;;;;10.38;8.30;;;;;;;16.95;100.00;96211.38;4985398;28;20038;-74
2023/09/09 03:27:32;;;;;;;10.52;9.52;;;;;;;16.94;100.00;96212.41;4991628;28;20040;-75
2023/09/09 03:29:58;;;;;;;10.07;8.82;;;;;;;16.93;100.00;96205.41;4991014;28;20270;-74
2023/09/09 03:32:25;;;;;;;12.07;9.18;;;;;;;16.90;100.00;96202.06;4981746;28;20039;-74
2023/09/09 03:34:50;;;;;;;9.32;8.63;;;;;;;16.90;100.00;96199.41;4989704;28;20031;-74
2023/09/09 03:37:16;;;;;;;12.55;9.00;;;;;;;16.88;100.00;96193.44;4991101;28;20454;-75
2023/09/09 03:39:42;;;;;;;10.30;9.30;;;;;;;16.88;100.00;96196.09;4987037;28;20034;-74
2023/09/09 03:42:07;;;;;;;10.63;9.68;;;;;;;16.86;100.00;96190.13;4992346;28;20079;-74
2023/09/09 03:44:33;;;;;;;10.98;8.55;;;;;;;16.85;100.00;96185.78;4978611;28;20062;-75
2023/09/09 03:46:58;;;;;;;9.70;8.88;;;;;;;16.83;100.00;96176.34;4979733;28;20083;-75
2023/09/09 03:49:23;;;;;;;9.85;9.05;;;;;;;16.83;100.00;96179.81;4981763;28;20030;-75
2023/09/09 03:51:49;;;;;;;9.93;9.02;;;;;;;16.82;100.00;96183.47;4990677;28;20146;-75
2023/09/09 03:54:14;;;;;;;10.10;9.25;;;;;;;16.83;100.00;96182.47;4980910;28;20106;-74
2023/09/09 03:56:40;;;;;;;10.10;9.30;;;;;;;16.81;100.00;96178.34;4988137;28;20031;-74
2023/09/09 03:59:05;;;;;;;12.80;9.40;;;;;;;16.82;100.00;96180.00;4992041;28;20038;-74
2023/09/09 04:01:31;;;;;;;10.13;9.40;;;;;;;16.84;100.00;96181.47;4979060;28;20056;-74
2023/09/09 04:03:56;;;;;;;10.70;9.73;;;;;;;16.86;100.00;96176.81;4981310;28;20034;-74
2023/09/09 04:06:22;;;;;;;10.55;9.65;;;;;;;16.84;100.00;96183.31;4978399;28;20110;-74
2023/09/09 04:08:55;;;;;;;11.73;9.60;;;;;;;16.80;100.00;96181.97;4979926;28;20030;-75
2023/09/09 04:11:20;;;;;;;12.25;9.82;;;;;;;16.74;100.00;96175.53;4979103;28;20110;-75
2023/09/09 04:13:46;;;;;;;9.52;8.82;;;;;;;16.73;100.00;96174.69;4978759;28;20070;-75
2023/09/09 04:16:11;;;;;;;9.80;8.90;;;;;;;16.72;100.00;96173.03;4987609;28;20121;-74
2023/09/09 04:18:37;;;;;;;11.57;9.10;;;;;;;16.69;100.00;96165.41;5004155;28;20034;-74
2023/09/09 04:21:02;;;;;;;10.82;9.55;;;;;;;16.71;100.00;96168.72;4988423;28;20023;-74
2023/09/09 04:23:28;;;;;;;12.23;9.30;;;;;;;16.70;100.00;96166.25;4974471;28;20125;-74
2023/09/09 04:25:53;;;;;;;9.77;9.05;;;;;;;16.71;100.00;96165.25;4991329;28;20030;-74
2023/09/09 04:28:18;;;;;;;10.75;8.68;;;;;;;16.69;100.00;96161.88;5024000;28;20037;-74
2023/09/09 04:30:45;;;;;;;10.38;9.38;;;;;;;16.66;100.00;96164.88;4985173;28;20073;-74
2023/09/09 04:33:11;;;;;;;11.52;8.95;;;;;;;16.61;100.00;96158.25;4986952;28;20396;-74
2023/09/09 04:35:39;;;;;;;9.57;8.77;;;;;;;16.63;100.00;96162.56;4988767;28;20076;-74
2023/09/09 04:38:05;;;;;;;10.23;9.43;;;;;;;16.59;100.00;96157.59;4989646;28;20110;-73
2023/09/09 04:40:31;;;;;;;11.10;9.85;;;;;;;16.55;100.00;96161.59;4990890;28;20027;-74
2023/09/09 04:42:56;;;;;;;10.13;9.23;;;;;;;16.56;100.00;96157.94;4989925;28;20027;-74
2023/09/09 04:45:23;;;;;;;9.43;8.48;;;;;;;16.55;100.00;96153.63;4977726;28;20030;-74
2023/09/09 04:47:50;;;;;;;10.95;10.00;;;;;;;16.54;100.00;96154.63;4981828;28;20030;-74
2023/09/09 04:50:15;;;;;;;9.75;8.95;;;;;;;16.55;100.00;96148.31;4976604;28;20395;-74
2023/09/09 04:52:41;;;;;;;11.32;10.32;;;;;;;16.55;100.00;96155.44;4991231;28;20039;-74
2023/09/09 04:55:07;;;;;;;11.18;10.05;;;;;;;16.51;100.00;96154.97;4986544;28;20131;-74
2023/09/09 04:57:32;;;;;;;11.63;10.52;;;;;;;16.43;100.00;96155.78;4988372;28;20034;-74
2023/09/09 04:59:57;;;;;;;10.70;9.70;;;;;;;16.44;100.00;96161.94;4990388;28;20046;-74
2023/09/09 05:02:23;;;;;;;10.73;9.27;;;;;;;16.37;100.00;96151.16;4985403;28;20034;-73
2023/09/09 05:04:48;;;;;;;10.00;9.18;;;;;;;16.23;100.00;96157.94;4969614;28;20531;-74
2023/09/09 05:07:14;;;;;;;9.77;8.88;;;;;;;16.18;100.00;96152.31;4981743;28;20038;-73
2023/09/09 05:09:39;;;;;;;10.15;9.35;;;;;;;16.23;100.00;96157.13;4986783;28;20042;-74
2023/09/09 05:12:05;;;;;;;10.90;9.93;;;;;;;16.22;100.00;96163.44;4987275;28;20030;-74
2023/09/09 05:14:30;;;;;;;11.68;10.68;;;;;;;16.16;100.00;96168.44;4987927;28;20030;-74
2023/09/09 05:16:56;;;;;;;10.88;9.90;;;;;;;16.14;100.00;96164.25;4995320;28;20035;-74
2023/09/09 05:19:22;;;;;;;10.95;9.57;;;;;;;16.16;100.00;96167.59;4995502;28;20052;-74
2023/09/09 05:21:48;;;;;;;12.15;10.15;;;;;;;16.16;100.00;96168.44;4990402;28;20402;-74
2023/09/09 05:24:14;;;;;;;12.13;9.90;;;;;;;16.16;100.00;96172.91;4980318;28;20032;-74
2023/09/09 05:26:39;;;;;;;10.93;9.90;;;;;;;16.17;100.00;96170.09;4989607;28;20041;-74
2023/09/09 05:29:05;;;;;;;10.10;9.30;;;;;;;16.20;100.00;96173.41;4988154;28;20106;-74
2023/09/09 05:31:30;;;;;;;10.13;9.23;;;;;;;16.20;100.00;96182.19;4983294;28;20092;-74
2023/09/09 05:33:56;;;;;;;11.52;9.40;;;;;;;16.23;100.00;96175.72;4987505;28;20023;-74
2023/09/09 05:36:21;;;;;;;11.68;10.68;;;;;;;16.23;100.00;96170.41;4999981;28;20059;-74
2023/09/09 05:38:47;;;;;;;10.75;9.98;;;;;;;16.23;100.00;96171.22;5032069;28;20053;-74
2023/09/09 05:41:13;;;;;;;11.93;10.73;;;;;;;16.25;100.00;96169.25;4989636;28;20018;-74
2023/09/09 05:43:38;;;;;;;11.45;10.43;;;;;;;16.23;100.00;96168.56;4990884;28;20034;-75
2023/09/09 05:46:04;;;;;;;10.98;9.68;;;;;;;16.23;100.00;96165.91;4989156;28;20042;-74
2023/09/09 05:48:30;;;;;;;10.82;9.85;;;;;;;16.27;100.00;96164.63;4988473;28;20030;-74
2023/09/09 05:50:55;;;;;;;11.07;9.98;;;;;;;16.32;100.00;96164.94;4998828;28;20133;-74
2023/09/09 05:53:21;;;;;;;10.10;9.23;;;;;;;16.38;100.00;96170.56;5022900;28;20034;-74
2023/09/09 05:55:47;;;;;;;24.70;22.20;;;;;;;16.43;100.00;96168.25;4990069;28;20034;-73
2023/09/09 05:58:12;;;;;;;14.80;13.25;;;;;;;16.45;100.00;96171.56;4988063;28;20051;-74
2023/09/09 06:00:38;;;;;;;15.10;13.18;;;;;;;16.45;100.00;96174.22;4982899;28;20038;-74
2023/09/09 06:03:03;;;;;;;11.57;10.05;;;;;;;16.45;100.00;96168.91;4988517;28;20030;-74
2023/09/09 06:05:29;;;;;;;10.23;9.43;;;;;;;16.49;100.00;96175.56;4993799;28;20038;-74
2023/09/09 06:07:56;;;;;;;10.90;10.00;;;;;;;16.53;100.00;96174.22;4988527;28;20052;-74
2023/09/09 06:10:22;;;;;;;10.15;9.20;;;;;;;16.54;100.00;96178.53;4990390;28;20105;-74
2023/09/09 06:12:47;;;;;;;13.68;10.07;;;;;;;16.57;100.00;96178.19;4993100;28;20504;-74
2023/09/09 06:15:13;;;;;;;10.98;9.98;;;;;;;16.64;100.00;96185.50;4978301;28;20022;-74
2023/09/09 06:17:39;;;;;;;10.82;9.93;;;;;;;16.67;100.00;96179.84;4991609;28;20026;-74
2023/09/09 06:20:06;;;;;;;11.02;9.95;;;;;;;16.68;100.00;96179.69;4982586;28;20049;-74
2023/09/09 06:22:32;;;;;;;10.48;9.48;;;;;;;16.70;100.00;96190.16;4987231;28;20046;-74
2023/09/09 06:24:57;;;;;;;10.73;9.93;;;;;;;16.68;100.00;96185.00;4985770;28;20023;-74
2023/09/09 06:27:23;;;;;;;11.50;10.40;;;;;;;16.75;100.00;96182.50;4994313;28;20026;-74
2023/09/09 06:29:48;;;;;;;10.88;9.98;;;;;;;16.80;100.00;96185.47;4985131;28;20107;-74
2023/09/09 06:32:14;;;;;;;10.45;9.45;;;;;;;16.85;100.00;96183.13;4987415;28;20022;-74
2023/09/09 06:34:39;;;;;;;11.05;10.25;;;;;;;16.85;100.00;96183.13;4989684;28;20114;-74
2023/09/09 06:37:04;;;;;;;11.93;10.73;;;;;;;16.89;100.00;96180.97;4986905;28;20038;-74
2023/09/09 06:39:30;;;;;;;12.45;10.48;;;;;;;16.93;100.00;96190.28;4986038;28;20148;-74
2023/09/09 06:41:55;;;;;;;12.30;11.18;;;;;;;16.95;100.00;96184.78;4997932;28;20068;-73
2023/09/09 06:44:21;;;;;;;11.45;10.55;;;;;;;16.96;100.00;96192.59;4993056;28;20057;-74
2023/09/09 06:46:46;;;;;;;10.98;10.07;;;;;;;17.01;100.00;96194.78;4993171;28;20019;-74
2023/09/09 06:49:12;;;;;;;11.80;10.63;;;;;;;17.03;100.00;96196.28;4990056;28;20030;-74
2023/09/09 06:51:37;;;;;;;11.35;10.25;;;;;;;17.10;100.00;96193.75;4992887;28;20027;-74
2023/09/09 06:54:03;;;;;;;11.13;10.00;;;;;;;17.48;100.00;96201.13;4992050;28;20150;-74
2023/09/09 06:56:28;;;;;;;14.27;10.57;;;;;;;18.00;100.00;96188.19;4990318;28;20069;-74
2023/09/09 06:58:54;;;;;;;11.00;9.73;;;;;;;18.44;100.00;96198.22;4983830;28;20071;-73
2023/09/09 07:01:19;;;;;;;9.77;8.88;;;;;;;18.84;100.00;96216.69;4989881;28;20034;-73
2023/09/09 07:03:44;;;;;;;9.65;8.75;;;;;;;19.25;100.00;96236.84;4986406;28;20551;-73
2023/09/09 07:06:10;;;;;;;12.20;9.15;;;;;;;19.64;100.00;96256.28;4988247;28;20034;-76
2023/09/09 07:08:40;;;;;;;10.95;9.10;;;;;;;19.85;100.00;96268.84;4989812;28;20034;-74
2023/09/09 07:11:05;;;;;;;11.68;8.80;;;;;;;20.19;100.00;96285.31;4986975;28;20045;-74
2023/09/09 07:13:33;;;;;;;15.32;9.05;;;;;;;20.77;100.00;96279.13;4989881;28;20026;-74
2023/09/09 07:15:59;;;;;;;14.70;8.48;;;;;;;21.44;100.00;96287.69;4991426;28;20090;-74
2023/09/09 07:18:24;;;;;;;9.73;8.38;;;;;;;21.94;100.00;96281.38;4993103;28;20484;-72
2023/09/09 07:20:50;;;;;;;11.57;7.90;;;;;;;22.24;100.00;96283.78;4979370;28;20039;-73
2023/09/09 07:23:16;;;;;;;8.38;7.50;;;;;;;22.69;100.00;96269.88;4977317;28;20132;-75
2023/09/09 07:25:43;;;;;;;7.43;6.63;;;;;;;23.01;100.00;96263.91;4985951;28;20658;-74
2023/09/09 07:28:09;;;;;;;9.05;6.45;;;;;;;23.26;100.00;96229.22;5002163;28;20027;-74
2023/09/09 07:30:34;;;;;;;7.00;6.32;;;;;;;23.29;100.00;96223.41;4987701;28;20557;-72
2023/09/09 07:33:00;;;;;;;7.18;6.57;;;;;;;23.07;100.00;96235.41;4979637;28;20034;-73
2023/09/09 07:35:25;;;;;;;8.75;6.05;;;;;;;22.58;100.00;96265.94;4987379;28;20037;-73
2023/09/09 07:37:51;;;;;;;6.03;5.43;;;;;;;22.24;100.00;96281.09;4988983;28;20057;-74
2023/09/09 07:40:17;;;;;;;6.30;5.80;;;;;;;22.17;100.00;96291.81;4990527;28;20079;-73
2023/09/09 07:42:42;;;;;;;9.18;6.47;;;;;;;22.11;100.00;96294.44;4989793;28;20137;-71
2023/09/09 07:45:08;;;;;;;6.82;6.22;;;;;;;21.94;100.00;96305.50;4972213;28;20031;-73
2023/09/09 07:47:33;;;;;;;6.93;6.40;;;;;;;21.95;100.00;96307.16;4972353;28;20030;-72
2023/09/09 07:49:59;;;;;;;5.80;5.40;;;;;;;22.00;100.00;96299.38;4987982;28;20495;-70
2023/09/09 07:52:24;;;;;;;6.13;5.63;;;;;;;22.19;100.00;96305.00;4993890;28;21945;-73
2023/09/09 07:54:51;;;;;;;6.60;6.10;;;;;;;22.32;100.00;96306.88;5000551;28;20030;-69
2023/09/09 07:57:17;;;;;;;7.45;6.30;;;;;;;22.44;100.00;96312.53;4982990;28;20027;-72
2023/09/09 07:59:42;;;;;;;6.45;5.85;;;;;;;22.40;100.00;96305.88;4989608;28;20470;-69
2023/09/09 08:02:08;;;;;;;6.85;6.35;;;;;;;22.46;100.00;96307.78;4989879;28;20027;-69
2023/09/09 08:04:34;;;;;;;12.20;6.72;;;;;;;22.66;100.00;96315.06;4989362;28;20371;-70
2023/09/09 08:07:00;;;;;;;6.70;6.13;;;;;;;22.71;100.00;96313.44;4990339;28;20654;-69
2023/09/09 08:09:26;;;;;;;7.40;6.70;;;;;;;22.91;100.00;96304.56;4987789;28;20022;-71
2023/09/09 08:11:52;;;;;;;7.63;5.43;;;;;;;23.07;100.00;96289.09;4989593;28;20037;-70
2023/09/09 08:14:18;;;;;;;6.35;5.72;;;;;;;23.01;100.00;96280.84;4986413;28;20050;-71
2023/09/09 08:16:44;;;;;;;7.65;5.78;;;;;;;22.91;100.00;96290.34;4989040;28;20458;-71
2023/09/09 08:19:09;;;;;;;7.40;6.30;;;;;;;22.84;100.00;96304.56;4990655;28;20030;-71
2023/09/09 08:21:35;;;;;;;6.10;5.68;;;;;;;22.88;100.00;96297.78;4978569;28;20068;-69
2023/09/09 08:24:01;;;;;;;6.97;6.28;;;;;;;23.00;100.00;96303.34;4990452;28;20046;-68
2023/09/09 08:26:27;;;;;;;8.05;6.43;;;;;;;23.24;100.00;96294.88;4990851;28;20026;-69
2023/09/09 08:28:53;;;;;;;7.05;6.55;;;;;;;23.47;100.00;96272.97;4990232;28;20532;-72
2023/09/09 08:31:18;;;;;;;6.75;6.13;;;;;;;23.61;100.00;96257.66;4982846;28;20136;-71
2023/09/09 08:33:43;;;;;;;7.50;6.13;;;;;;;23.80;100.00;96258.63;4989555;28;20037;-70
2023/09/09 08:36:09;;;;;;;7.82;6.05;;;;;;;23.86;100.00;96249.69;4986692;28;20034;-69
2023/09/09 08:38:34;;;;;;;6.55;6.05;;;;;;;23.86;100.00;96244.31;4987292;28;20031;-69
2023/09/09 08:41:06;;;;;;;6.50;6.05;;;;;;;23.59;100.00;96255.16;4988368;28;20028;-69
2023/09/09 08:43:40;;;;;;;8.52;6.68;;;;;;;23.48;100.00;96263.03;4986805;28;20547;-69
2023/09/09 08:46:14;;;;;;;7.65;6.05;;;;;;;23.62;100.00;96253.94;4980479;28;20401;-69
2023/09/09 08:48:42;;;;;;;6.13;5.57;;;;;;;23.55;100.00;96242.38;4989538;28;20063;-71
2023/09/09 08:51:13;;;;;;;7.75;6.10;;;;;;;23.56;100.00;96244.84;4990342;28;20030;-69
2023/09/09 08:53:46;;;;;;;7.10;6.40;;;;;;;23.75;100.00;96251.19;4986467;28;20034;-71
2023/09/09 08:56:12;;;;;;;6.40;5.90;;;;;;;23.88;100.00;96241.44;4980777;28;20069;-70
2023/09/09 08:58:40;;;;;;;6.70;5.78;;;;;;;23.86;100.00;96227.38;4978134;28;20022;-70
2023/09/09 09:01:05;;;;;;;6.57;5.97;;;;;;;23.88;100.00;96246.81;4984964;28;20530;-70
2023/09/09 09:03:32;;;;;;;6.28;5.55;;;;;;;24.03;100.00;96243.88;4985960;28;20046;-70
2023/09/09 09:06:01;;;;;;;7.55;6.53;;;;;;;23.91;100.00;96249.06;4976756;28;20026;-71
2023/09/09 09:08:27;;;;;;;10.07;6.00;;;;;;;23.90;100.00;96271.63;4982283;28;20591;-71
2023/09/09 09:10:55;;;;;;;7.10;6.43;;;;;;;23.81;100.00;96272.91;4981144;28;20062;-70
2023/09/09 09:13:20;;;;;;;7.05;6.10;;;;;;;23.84;100.00;96270.59;4974448;28;20398;-70
2023/09/09 09:15:46;;;;;;;7.47;6.78;;;;;;;23.85;100.00;96266.06;4988893;28;20053;-70
2023/09/09 09:18:12;;;;;;;7.35;6.57;;;;;;;23.89;100.00;96267.28;4983535;28;20030;-68
2023/09/09 09:20:40;;;;;;;6.75;6.18;;;;;;;23.93;100.00;96263.13;4988054;28;20022;-69
2023/09/09 09:23:09;;;;;;;6.45;5.85;;;;;;;23.95;100.00;96255.66;4972981;28;20506;-69
2023/09/09 09:25:41;;;;;;;8.05;6.10;;;;;;;23.92;100.00;96256.09;4984738;28;20086;-69
2023/09/09 09:28:07;;;;;;;7.13;6.20;;;;;;;23.82;100.00;96239.59;4994859;28;20394;-69
2023/09/09 09:30:33;;;;;;;6.68;6.15;;;;;;;23.83;100.00;96254.69;4975321;28;20047;-70
2023/09/09 09:32:59;;;;;;;6.20;5.65;;;;;;;23.85;100.00;96231.09;4975132;28;20035;-69
2023/09/09 09:35:32;;;;;;;7.35;6.47;;;;;;;23.80;100.00;96212.13;4991358;28;20557;-69
2023/09/09 09:37:59;;;;;;;7.50;5.97;;;;;;;23.81;100.00;96233.38;4992283;28;20030;-70
2023/09/09 09:40:25;;;;;;;5.88;5.47;;;;;;;23.84;100.00;96242.91;4987400;28;20030;-70
2023/09/09 09:42:51;;;;;;;6.38;5.78;;;;;;;23.95;100.00;96254.84;4993351;28;20584;-70
2023/09/09 09:45:17;;;;;;;6.10;5.60;;;;;;;24.26;100.00;96237.97;4979211;28;20031;-69
2023/09/09 09:47:47;;;;;;;6.25;5.75;;;;;;;24.11;100.00;96230.19;4986777;28;20030;-70
2023/09/09 09:50:30;;;;;;;8.60;5.93;;;;;;;24.28;100.00;96235.88;4990095;28;20042;-72
2023/09/09 09:53:04;;;;;;;6.97;6.25;;;;;;;24.28;100.00;96224.28;4989829;28;20031;-70
2023/09/09 09:55:32;;;;;;;6.00;5.60;;;;;;;24.23;100.00;96237.56;4989368;28;20068;-70
2023/09/09 09:58:00;;;;;;;5.85;5.45;;;;;;;24.35;100.00;96232.31;4986017;28;20069;-69
2023/09/09 10:00:27;;;;;;;7.57;6.03;;;;;;;24.45;100.00;96221.94;4989568;28;20039;-69
2023/09/09 10:02:54;;;;;;;6.78;6.18;;;;;;;24.44;100.00;96207.63;4990035;28;21015;-69
2023/09/09 10:05:23;;;;;;;5.97;5.47;;;;;;;24.50;100.00;96211.34;4986252;28;20171;-68
2023/09/09 10:07:56;;;;;;;6.22;5.63;;;;;;;24.73;100.00;96213.41;4990231;28;20034;-69
2023/09/09 10:10:23;;;;;;;6.50;5.97;;;;;;;24.89;100.00;96182.47;4984858;28;20419;-68
2023/09/09 10:12:57;;;;;;;6.25;5.75;;;;;;;24.86;100.00;96177.50;4989225;28;20022;-68
2023/09/09 10:15:25;;;;;;;6.88;5.47;;;;;;;24.93;100.00;96182.84;4982339;28;20039;-66
2023/09/09 10:17:52;;;;;;;6.35;5.70;;;;;;;24.90;100.00;96177.91;4982550;28;20107;-65
2023/09/09 10:20:18;;;;;;;5.82;5.25;;;;;;;24.99;100.00;96181.13;4991884;28;20088;-65
2023/09/09 10:22:45;;;;;;;5.72;5.25;;;;;;;25.24;100.00;96189.19;4993098;28;20085;-65
2023/09/09 10:25:11;;;;;;;8.27;5.43;;;;;;;25.24;100.00;96175.72;4981814;28;20050;-66
2023/09/09 10:27:39;;;;;;;6.40;5.80;;;;;;;25.14;100.00;96164.63;4982645;28;20030;-66
2023/09/09 10:30:07;;;;;;;9.15;5.57;;;;;;;25.10;100.00;96158.88;4992348;28;20056;-66
2023/09/09 10:32:35;;;;;;;6.07;5.25;;;;;;;25.10;100.00;96158.03;4993354;28;20391;-65
2023/09/09 10:35:04;;;;;;;5.95;5.45;;;;;;;25.21;100.00;96169.94;4987364;28;20092;-66
2023/09/09 10:37:33;;;;;;;6.07;5.50;;;;;;;25.32;100.00;96161.13;4977325;28;20057;-65
2023/09/09 10:39:59;;;;;;;6.05;5.20;;;;;;;25.40;100.00;96150.03;4984188;28;20114;-65
2023/09/09 10:42:25;;;;;;;7.53;5.40;;;;;;;25.47;100.00;96150.00;5004032;28;20486;-65
2023/09/09 10:44:53;;;;;;;8.05;5.30;;;;;;;25.54;100.00;96139.97;4985838;28;20495;-66
2023/09/09 10:47:19;;;;;;;6.20;5.60;;;;;;;25.65;100.00;96140.25;4986544;28;20058;-66
2023/09/09 10:49:45;;;;;;;5.85;5.45;;;;;;;25.91;100.00;96130.97;4983576;28;20113;-65
2023/09/09 10:52:29;;;;;;;5.85;4.82;;;;;;;25.92;100.00;96129.91;4977755;28;20052;-65
2023/09/09 10:55:11;;;;;;;6.47;5.10;;;;;;;26.05;100.00;96112.72;4982556;28;20026;-65
2023/09/09 10:57:36;;;;;;;7.05;5.20;;;;;;;26.10;100.00;96117.44;4988939;28;20316;-65
2023/09/09 11:00:06;;;;;;;5.97;5.35;;;;;;;26.22;100.00;96125.59;4983826;28;20119;-66
2023/09/09 11:02:42;;;;;;;8.57;5.13;;;;;;;26.25;100.00;96122.41;4991670;28;20081;-66
2023/09/09 11:05:12;;;;;;;7.60;5.07;;;;;;;26.52;100.00;96128.22;4986293;28;20033;-66
2023/09/09 11:07:44;;;;;;;6.13;5.22;;;;;;;26.40;100.00;96120.09;4986127;28;20038;-66
2023/09/09 11:10:15;;;;;;;6.55;5.43;;;;;;;26.70;100.00;96119.19;4971951;28;20448;-66
2023/09/09 11:12:50;;;;;;;5.78;5.22;;;;;;;27.06;100.00;96107.59;4991328;28;20034;-66
2023/09/09 11:15:15;;;;;;;;;;;;;;;27.30;100.00;96101.06;4980722;28;20033;-66
2023/09/09 11:17:45;;;;;;;5.53;5.00;;;;;;;27.57;100.00;96105.97;4991232;28;19914;-66